createdAt,value
2019-05-13T00:03:48.558Z,1.50
2019-05-13T00:08:54.227Z,2.08
2019-05-13T00:13:57.255Z,1.12
2019-05-13T00:19:00.724Z,2.17
2019-05-13T00:24:04.331Z,1.65
2019-05-13T00:29:07.817Z,2.35
2019-05-13T00:34:11.284Z,1.27
2019-05-13T00:39:15.392Z,2.98
2019-05-13T00:44:19.037Z,2.65
2019-05-13T00:49:23.875Z,2.05
2019-05-13T00:54:28.683Z,3.12
2019-05-13T00:59:34.891Z,2.10
2019-05-13T01:04:38.330Z,3.08
2019-05-13T01:09:41.684Z,2.60
2019-05-13T01:14:45.172Z,3.37
2019-05-13T01:19:48.890Z,2.55
2019-05-13T01:24:54.195Z,3.60
2019-05-13T01:29:58.471Z,2.67
2019-05-13T01:35:04.443Z,3.27
2019-05-13T01:40:08.186Z,3.08
2019-05-13T01:45:13.692Z,2.70
2019-05-13T01:50:17.526Z,3.90
2019-05-13T01:55:21.325Z,2.15
2019-05-13T02:00:26.150Z,3.12
2019-05-13T02:05:29.890Z,3.15
2019-05-13T02:10:53.916Z,2.62
2019-05-13T02:15:56.822Z,3.55
2019-05-13T02:21:00.309Z,4.10
2019-05-13T02:26:04.722Z,2.50
2019-05-13T02:31:08.352Z,4.55
2019-05-13T02:36:13.487Z,4.83
2019-05-13T02:41:17.195Z,5.28
2019-05-13T02:46:22.598Z,4.45
2019-05-13T02:51:25.905Z,4.05
2019-05-13T02:56:29.460Z,5.55
2019-05-13T03:01:33.390Z,4.75
2019-05-13T03:06:37.948Z,4.33
2019-05-13T03:11:42.329Z,4.35
2019-05-13T03:16:58.114Z,3.95
2019-05-13T03:22:02.972Z,4.45
2019-05-13T03:27:07.240Z,4.35
2019-05-13T03:32:16.612Z,4.95
2019-05-13T03:37:16.984Z,4.03
2019-05-13T03:42:24.491Z,3.98
2019-05-13T03:47:32.859Z,5.80
2019-05-13T03:52:36.429Z,3.60
2019-05-13T03:57:42.657Z,4.00
2019-05-13T04:02:46.383Z,5.78
2019-05-13T04:07:52.332Z,5.12
2019-05-13T04:12:55.501Z,5.58
2019-05-13T04:18:02.383Z,6.53
2019-05-13T04:23:04.330Z,6.33
2019-05-13T04:28:07.894Z,6.35
2019-05-13T04:33:13.904Z,6.45
2019-05-13T04:38:16.927Z,6.10
2019-05-13T04:43:23.500Z,6.40
2019-05-13T04:48:26.577Z,3.90
2019-05-13T04:53:33.001Z,4.42
2019-05-13T04:58:35.315Z,5.37
2019-05-13T05:03:52.773Z,5.37
2019-05-13T05:10:23.492Z,5.90
2019-05-13T05:15:47.662Z,5.45
2019-05-13T05:21:01.472Z,6.37
2019-05-13T05:26:45.832Z,4.85
2019-05-13T05:32:23.148Z,4.90
2019-05-13T05:38:01.443Z,4.33
2019-05-13T05:43:11.488Z,5.12
2019-05-13T05:48:16.960Z,5.47
2019-05-13T05:53:23.863Z,5.58
2019-05-13T05:58:31.377Z,3.62
2019-05-13T06:03:37.436Z,5.70
2019-05-13T06:13:46.024Z,6.20
2019-05-13T06:18:52.868Z,4.15
2019-05-13T06:23:56.557Z,3.90
2019-05-13T06:29:02.531Z,3.77
2019-05-13T06:34:05.283Z,3.47
2019-05-13T06:39:12.131Z,4.22
2019-05-13T06:44:15.239Z,2.13
2019-05-13T06:49:21.480Z,3.50
2019-05-13T06:54:24.357Z,3.40
2019-05-13T06:59:27.742Z,3.20
2019-05-13T07:04:32.582Z,2.45
2019-05-13T07:09:37.062Z,2.27
2019-05-13T07:14:41.317Z,2.33
2019-05-13T07:19:45.742Z,2.52
2019-05-13T07:24:51.771Z,2.40
2019-05-13T07:29:55.763Z,2.33
2019-05-13T07:35:03.402Z,1.65
2019-05-13T07:40:05.446Z,2.10
2019-05-13T07:45:11.487Z,2.05
2019-05-13T07:50:14.582Z,2.00
2019-05-13T07:55:18.447Z,2.10
2019-05-13T08:00:22.406Z,2.20
2019-05-13T08:05:26.534Z,1.77
2019-05-13T08:10:31.887Z,1.37
2019-05-13T08:15:35.813Z,1.62
2019-05-13T08:20:41.743Z,1.30
2019-05-13T08:25:45.962Z,1.20
2019-05-13T08:30:51.668Z,0.85
2019-05-13T08:35:58.759Z,0.68
2019-05-13T08:41:03.273Z,1.12
2019-05-13T08:46:08.686Z,1.57
2019-05-13T08:51:12.896Z,1.35
2019-05-13T08:56:16.373Z,1.35
2019-05-13T09:01:22.528Z,1.00
2019-05-13T09:06:25.620Z,0.85
2019-05-13T09:11:31.509Z,1.00
2019-05-13T09:16:35.128Z,1.07
2019-05-13T09:21:38.688Z,1.30
2019-05-13T09:26:42.422Z,0.90
2019-05-13T09:31:45.999Z,0.82
2019-05-13T09:36:51.936Z,0.60
2019-05-13T09:41:55.674Z,0.70
2019-05-13T09:47:02.235Z,0.68
2019-05-13T09:52:05.448Z,0.98
2019-05-13T09:57:12.138Z,0.78
2019-05-13T10:02:16.424Z,1.15
2019-05-13T10:07:22.613Z,1.80
2019-05-13T10:12:25.207Z,1.50
2019-05-13T10:17:31.664Z,0.60
2019-05-13T10:22:35.346Z,0.85
2019-05-13T10:27:38.883Z,0.90
2019-05-13T10:32:42.935Z,0.75
2019-05-13T10:37:46.606Z,1.00
2019-05-13T10:42:52.443Z,1.70
2019-05-13T10:47:55.661Z,1.12
2019-05-13T10:53:03.162Z,1.57
2019-05-13T10:58:07.063Z,0.77
2019-05-13T11:03:11.797Z,1.30
2019-05-13T11:08:17.430Z,0.80
2019-05-13T11:13:23.261Z,1.20
2019-05-13T11:18:26.929Z,0.80
2019-05-13T11:23:33.264Z,1.67
2019-05-13T11:28:36.655Z,1.50
2019-05-13T11:33:42.322Z,1.30
2019-05-13T11:38:45.834Z,1.20
2019-05-13T11:44:10.254Z,1.70
2019-05-13T11:48:58.721Z,1.50
2019-05-13T11:54:03.433Z,1.60
2019-05-13T11:59:09.240Z,1.47
2019-05-13T12:04:13.051Z,1.30
2019-05-13T12:09:26.390Z,1.10
2019-05-13T12:14:44.143Z,0.90
2019-05-13T12:19:41.275Z,1.82
2019-05-13T12:24:47.106Z,1.92
2019-05-13T12:29:53.754Z,1.25
2019-05-13T12:34:57.289Z,1.30
2019-05-13T12:40:05.225Z,0.95
2019-05-13T12:45:14.077Z,1.30
2019-05-13T12:50:27.564Z,0.60
2019-05-13T12:55:33.175Z,1.50
2019-05-13T13:00:36.748Z,1.62
2019-05-13T13:05:43.283Z,2.05
2019-05-13T13:10:46.492Z,1.37
2019-05-13T13:15:52.825Z,1.30
2019-05-13T13:21:01.045Z,1.90
2019-05-13T13:26:02.909Z,1.35
2019-05-13T13:31:06.711Z,1.70
2019-05-13T13:36:15.482Z,2.25
2019-05-13T13:41:22.383Z,1.60
2019-05-13T13:46:37.097Z,1.65
2019-05-13T13:51:28.532Z,1.50
2019-05-13T13:56:32.841Z,1.57
2019-05-13T14:01:37.270Z,1.22
2019-05-13T14:11:46.921Z,0.90
2019-05-13T14:16:51.908Z,1.00
2019-05-13T14:21:55.944Z,1.75
2019-05-13T14:26:59.678Z,1.72
2019-05-13T14:32:03.239Z,1.70
2019-05-13T14:37:06.874Z,1.00
2019-05-13T14:42:11.686Z,0.80
2019-05-13T14:47:16.310Z,1.00
2019-05-13T14:52:22.089Z,1.12
2019-05-13T14:57:25.292Z,1.30
2019-05-13T15:02:28.809Z,1.90
2019-05-13T15:07:33.404Z,0.80
2019-05-13T15:12:37.320Z,1.30
2019-05-13T15:17:42.630Z,1.57
2019-05-13T15:22:47.656Z,1.27
2019-05-13T15:27:52.955Z,1.30
2019-05-13T15:32:56.473Z,1.27
2019-05-13T15:38:01.373Z,1.80
2019-05-13T15:43:05.527Z,1.32
2019-05-13T15:48:11.585Z,2.17
2019-05-13T15:53:14.753Z,2.12
2019-05-13T15:58:37.746Z,2.62
2019-05-13T16:03:26.886Z,2.33
2019-05-13T16:08:43.474Z,1.77
2019-05-13T16:13:47.085Z,1.60
2019-05-13T16:18:51.567Z,1.57
2019-05-13T16:23:55.487Z,1.57
2019-05-13T16:29:01.813Z,1.42
2019-05-13T16:34:04.343Z,1.67
2019-05-13T16:39:07.997Z,1.80
2019-05-13T16:44:12.221Z,1.80
2019-05-13T16:49:17.141Z,2.05
2019-05-13T16:54:22.105Z,1.92
2019-05-13T16:59:26.287Z,2.00
2019-05-13T17:04:31.940Z,1.45
2019-05-13T17:09:35.091Z,1.92
2019-05-13T17:14:38.649Z,2.42
2019-05-13T17:19:42.351Z,2.77
2019-05-13T17:24:47.058Z,2.55
2019-05-13T17:29:51.599Z,2.92
2019-05-13T17:34:55.521Z,3.20
2019-05-13T17:40:01.127Z,2.45
2019-05-13T17:45:04.836Z,2.55
2019-05-13T17:50:08.533Z,2.70
2019-05-13T17:55:15.342Z,4.83
2019-05-13T18:00:18.928Z,3.50
2019-05-13T18:05:22.644Z,3.30
2019-05-13T18:10:26.962Z,3.45
2019-05-13T18:15:31.358Z,2.08
2019-05-13T18:20:35.233Z,4.28
2019-05-13T18:25:38.674Z,3.83
2019-05-13T18:30:42.214Z,2.92
2019-05-13T18:35:45.953Z,2.92
2019-05-13T18:41:02.036Z,3.35
2019-05-13T18:46:05.935Z,3.83
2019-05-13T18:51:11.976Z,5.15
2019-05-13T18:56:15.709Z,3.98
2019-05-13T19:01:21.427Z,4.40
2019-05-13T19:06:24.470Z,4.40
2019-05-13T19:11:28.993Z,7.40
2019-05-13T19:16:32.339Z,6.20
2019-05-13T19:21:35.821Z,5.97
2019-05-13T19:26:41.503Z,7.25
2019-05-13T19:31:44.894Z,7.28
2019-05-13T19:36:48.801Z,6.03
2019-05-13T19:41:52.213Z,6.12
2019-05-13T19:46:55.665Z,7.03
2019-05-13T19:52:01.966Z,6.15
2019-05-13T19:57:05.378Z,5.70
2019-05-13T20:02:08.765Z,5.33
2019-05-13T20:07:12.255Z,5.45
2019-05-13T20:12:15.979Z,5.60
2019-05-13T20:17:19.383Z,6.70
2019-05-13T20:22:23.031Z,5.90
2019-05-13T20:27:26.799Z,7.10
2019-05-13T20:32:30.816Z,7.17
2019-05-13T20:37:35.288Z,6.30
2019-05-13T20:42:41.265Z,6.92
2019-05-13T20:47:44.828Z,7.45
2019-05-13T20:52:48.289Z,6.37
2019-05-13T20:57:53.026Z,6.85
2019-05-13T21:02:57.145Z,7.83
2019-05-13T21:08:01.742Z,7.08
2019-05-13T21:13:05.769Z,6.67
2019-05-13T21:18:11.367Z,6.50
2019-05-13T21:23:14.777Z,7.67
2019-05-13T21:28:18.376Z,8.15
2019-05-13T21:33:22.307Z,9.28
2019-05-13T21:38:25.878Z,7.92
2019-05-13T21:43:29.539Z,7.62
2019-05-13T21:48:33.351Z,7.17
2019-05-13T21:53:37.756Z,7.03
2019-05-13T21:58:41.587Z,7.30
2019-05-13T22:03:45.659Z,7.40
2019-05-13T22:08:51.651Z,7.12
2019-05-13T22:13:54.726Z,7.97
2019-05-13T22:18:58.199Z,8.10
2019-05-13T22:24:02.223Z,5.78
2019-05-13T22:29:05.793Z,6.70
2019-05-13T22:34:11.917Z,5.55
2019-05-13T22:39:14.796Z,6.35
2019-05-13T22:44:21.666Z,5.97
2019-05-13T22:49:24.855Z,4.23
2019-05-13T22:54:28.295Z,5.72
2019-05-13T22:59:32.327Z,5.92
2019-05-13T23:04:35.878Z,5.10
2019-05-13T23:09:41.572Z,4.67
2019-05-13T23:14:44.773Z,5.58
2019-05-13T23:19:48.205Z,5.35
2019-05-13T23:24:51.909Z,4.90
2019-05-13T23:29:55.725Z,5.30
2019-05-13T23:35:01.790Z,4.92
2019-05-13T23:40:05.785Z,5.22
2019-05-13T23:45:11.435Z,5.03
2019-05-13T23:50:15.167Z,4.62
2019-05-13T23:55:18.688Z,5.42
